Time;durP1;ratioP1;P1;durP2;ratioP2;P2;SDS_P1;SDS_P2;PMS_P1;PMS_P2;Temp;Humidity;BMP_temperature;BMP_pressure;BME280_temperature;BME280_humidity;BME280_pressure;Samples;Min_cycle;Max_cycle;Signal;HPM_P1;HPM_P2
2021/11/21 09:02:49;;;;;;;18.23;6.25;;;;;;;;;;5130554;27;20152;-78
2021/11/21 09:05:15;;;;;;;19.40;7.43;;;;;;;;;;5093582;28;20277;-78
2021/11/21 09:07:42;;;;;;;24.33;7.35;;;;;;;;;;5080668;27;20023;-78
2021/11/21 09:10:09;;;;;;;19.20;6.70;;;;;;;;;;5057095;28;20429;-78
2021/11/21 09:12:35;;;;;;;22.17;6.90;;;;;;;;;;5072660;28;20082;-80
2021/11/21 09:15:01;;;;;;;16.30;6.63;;;;;;;;;;5089690;28;20048;-81
2021/11/21 09:17:27;;;;;;;17.88;6.70;;;;;;;;;;5072686;28;20039;-78
2021/11/21 09:19:53;;;;;;;20.30;7.25;;;;;;;;;;5090900;28;20029;-78
2021/11/21 09:22:18;;;;;;;21.55;8.30;;;;;;;;;;5090720;28;20391;-79
2021/11/21 09:24:44;;;;;;;16.35;6.65;;;;;;;;;;5089560;28;20032;-79
2021/11/21 09:27:14;;;;;;;21.45;8.27;;;;;;;;;;5048762;28;20092;-80
2021/11/21 09:29:43;;;;;;;22.33;7.53;;;;;;;;;;5070187;28;20087;-79
2021/11/21 09:32:12;;;;;;;17.58;7.05;;;;;;;;;;5065930;28;20048;-77
2021/11/21 09:34:38;;;;;;;17.42;7.57;;;;;;;;;;5061833;28;20119;-76
2021/11/21 09:50:07;;;;;;;21.92;7.40;;;;;;;;;;5122759;27;20360;-78
2021/11/21 09:52:33;;;;;;;16.70;6.90;;;;;;;;;;5110737;28;20053;-77
2021/11/21 09:54:59;;;;;;;16.05;6.70;;;;;;;;;;5092519;28;20498;-77
2021/11/21 09:57:24;;;;;;;17.98;7.07;;;;;;;;;;5076361;28;20089;-77
2021/11/21 09:59:50;;;;;;;19.65;6.82;;;;;;;;;;5093074;28;20036;-78
2021/11/21 10:02:17;;;;;;;18.77;7.22;;;;;;;;;;5111018;28;20100;-78
2021/11/21 10:04:43;;;;;;;14.15;6.68;;;;;;;;;;5093120;28;20085;-78
2021/11/21 10:07:18;;;;;;;15.70;7.03;;;;;;;;;;5110926;28;20442;-79
2021/11/21 10:09:44;;;;;;;17.98;6.97;;;;;;;;;;5110842;28;20032;-78
2021/11/21 10:12:09;;;;;;;13.65;6.55;;;;;;;;;;5075934;28;20028;-78
2021/11/21 10:14:52;;;;;;;19.80;6.80;;;;;;;;;;5092917;28;20122;-79
2021/11/21 10:17:18;;;;;;;20.90;7.65;;;;;;;;;;5110846;28;20039;-79
2021/11/21 10:20:03;;;;;;;16.25;6.75;;;;;;;;;;5110547;28;20462;-79
2021/11/21 10:22:47;;;;;;;14.60;6.47;;;;;;;;;;5075881;28;20042;-79
2021/11/21 10:25:13;;;;;;;15.15;6.47;;;;;;;;;;5075914;28;20034;-79
2021/11/21 10:27:42;;;;;;;14.30;6.47;;;;;;;;;;5092450;28;20027;-79
2021/11/21 10:30:08;;;;;;;14.50;6.53;;;;;;;;;;5075223;28;20490;-79
2021/11/21 10:32:34;;;;;;;11.73;5.85;;;;;;;;;;5110662;28;20030;-79
2021/11/21 10:35:02;;;;;;;20.48;6.80;;;;;;;;;;5092641;28;20031;-79
2021/11/21 10:37:29;;;;;;;15.80;7.07;;;;;;;;;;5075600;28;20077;-79
2021/11/21 10:39:58;;;;;;;13.68;6.40;;;;;;;;;;5092127;28;20055;-79
2021/11/21 10:42:24;;;;;;;16.38;6.97;;;;;;;;;;5075570;28;20417;-79
2021/11/21 10:44:53;;;;;;;16.35;6.32;;;;;;;;;;5110330;28;20088;-79
2021/11/21 10:47:18;;;;;;;15.32;7.20;;;;;;;;;;5110126;28;20056;-78
2021/11/21 10:49:44;;;;;;;11.73;6.32;;;;;;;;;;5116020;28;20482;-77
2021/11/21 10:52:18;;;;;;;15.15;7.03;;;;;;;;;;5124714;28;20157;-78
2021/11/21 10:54:54;;;;;;;13.70;6.50;;;;;;;;;;5109171;28;20028;-79
2021/11/21 10:57:21;;;;;;;16.77;7.13;;;;;;;;;;5121595;28;20114;-78
2021/11/21 10:59:48;;;;;;;14.18;7.30;;;;;;;;;;5107261;28;20028;-80
2021/11/21 11:02:14;;;;;;;14.85;7.28;;;;;;;;;;5081938;28;20036;-78
2021/11/21 11:04:56;;;;;;;13.95;6.75;;;;;;;;;;5113005;28;20035;-77
2021/11/21 11:07:22;;;;;;;13.63;6.68;;;;;;;;;;5094431;28;20387;-79
2021/11/21 11:09:50;;;;;;;13.07;6.30;;;;;;;;;;5093939;28;20048;-78
2021/11/21 11:12:16;;;;;;;14.80;6.60;;;;;;;;;;5078171;28;20032;-79
2021/11/21 11:14:41;;;;;;;13.90;6.63;;;;;;;;;;5078125;28;20032;-75
2021/11/21 11:17:07;;;;;;;13.32;6.80;;;;;;;;;;5112401;28;20028;-76
2021/11/21 11:19:33;;;;;;;14.45;6.35;;;;;;;;;;5115208;28;20496;-77
2021/11/21 11:21:59;;;;;;;11.30;5.88;;;;;;;;;;5113946;28;20504;-78
2021/11/21 11:24:25;;;;;;;13.75;6.28;;;;;;;;;;5114968;27;20047;-75
2021/11/21 11:27:14;;;;;;;12.10;5.93;;;;;;;;;;5114077;28;20031;-74
2021/11/21 11:29:43;;;;;;;14.82;5.93;;;;;;;;;;5042451;28;20043;-78
2021/11/21 11:32:30;;;;;;;14.00;5.95;;;;;;;;;;5094074;28;20035;-77
2021/11/21 11:34:56;;;;;;;12.70;6.10;;;;;;;;;;5102222;28;20031;-73
2021/11/21 11:37:34;;;;;;;16.00;6.05;;;;;;;;;;5094089;28;20531;-76
2021/11/21 11:40:00;;;;;;;12.43;5.85;;;;;;;;;;5093260;28;20028;-79
2021/11/21 11:42:37;;;;;;;14.25;6.07;;;;;;;;;;5076329;28;20111;-76
2021/11/21 11:45:05;;;;;;;15.77;5.93;;;;;;;;;;5095335;28;20408;-77
2021/11/21 11:47:30;;;;;;;11.10;5.80;;;;;;;;;;5113125;28;20023;-81
2021/11/21 11:49:56;;;;;;;13.15;6.15;;;;;;;;;;5089410;28;20043;-77
2021/11/21 11:52:40;;;;;;;12.90;5.80;;;;;;;;;;5113066;28;20424;-76
2021/11/21 11:55:07;;;;;;;11.88;5.72;;;;;;;;;;5113271;28;20107;-76
2021/11/21 11:57:34;;;;;;;14.02;5.60;;;;;;;;;;5114739;28;20031;-78
2021/11/21 12:00:19;;;;;;;11.35;5.57;;;;;;;;;;5112950;28;20027;-78
2021/11/21 12:02:46;;;;;;;12.07;5.68;;;;;;;;;;5114241;28;20044;-76
2021/11/21 12:05:11;;;;;;;10.38;5.30;;;;;;;;;;5114431;28;20107;-75
2021/11/21 12:07:43;;;;;;;9.63;5.70;;;;;;;;;;5113863;28;20565;-77
2021/11/21 12:10:19;;;;;;;11.75;6.15;;;;;;;;;;5113990;28;20390;-79
2021/11/21 12:12:50;;;;;;;11.68;5.78;;;;;;;;;;5113177;28;20030;-76
2021/11/21 12:15:33;;;;;;;15.98;5.93;;;;;;;;;;5114167;28;20543;-76
2021/11/21 12:18:00;;;;;;;9.93;5.05;;;;;;;;;;5114064;28;20038;-76
2021/11/21 12:20:41;;;;;;;12.93;5.53;;;;;;;;;;5095717;28;20141;-76
2021/11/21 12:23:06;;;;;;;10.07;5.28;;;;;;;;;;5113998;28;20036;-76
2021/11/21 12:25:32;;;;;;;14.15;6.50;;;;;;;;;;5112607;28;20020;-76
2021/11/21 12:27:58;;;;;;;11.02;5.38;;;;;;;;;;5112538;28;20084;-76
2021/11/21 12:30:26;;;;;;;11.10;5.63;;;;;;;;;;5112349;28;20477;-76
2021/11/21 12:32:54;;;;;;;11.07;5.20;;;;;;;;;;5113826;28;20031;-76
2021/11/21 12:35:30;;;;;;;10.15;5.28;;;;;;;;;;5113131;28;20032;-77
2021/11/21 12:37:57;;;;;;;9.82;5.15;;;;;;;;;;5113452;28;20035;-76
2021/11/21 12:40:39;;;;;;;12.80;5.38;;;;;;;;;;5111237;28;20102;-75
2021/11/21 12:43:06;;;;;;;11.60;5.70;;;;;;;;;;5094573;28;20032;-75
2021/11/21 12:45:34;;;;;;;10.43;5.18;;;;;;;;;;5093845;28;20054;-76
2021/11/21 12:48:01;;;;;;;12.82;5.88;;;;;;;;;;5092843;28;20052;-75
2021/11/21 12:50:36;;;;;;;9.55;4.88;;;;;;;;;;5076230;28;20036;-76
2021/11/21 12:53:03;;;;;;;12.13;5.30;;;;;;;;;;5075926;28;20478;-75
2021/11/21 12:55:31;;;;;;;12.07;5.18;;;;;;;;;;5092916;28;20390;-76
2021/11/21 12:57:57;;;;;;;10.98;4.68;;;;;;;;;;5093018;28;20417;-76
2021/11/21 13:00:24;;;;;;;11.82;5.07;;;;;;;;;;5092708;28;20031;-77
2021/11/21 13:03:02;;;;;;;16.90;5.43;;;;;;;;;;5093037;28;20032;-75
2021/11/21 13:05:32;;;;;;;12.32;5.65;;;;;;;;;;5093972;28;20024;-76
2021/11/21 13:07:58;;;;;;;10.30;5.45;;;;;;;;;;5094453;28;20044;-76
2021/11/21 13:10:24;;;;;;;10.85;5.50;;;;;;;;;;5094170;28;20359;-76
2021/11/21 13:12:51;;;;;;;10.25;4.68;;;;;;;;;;5092562;28;20024;-77
2021/11/21 13:15:21;;;;;;;13.05;5.57;;;;;;;;;;5093069;28;20028;-76
2021/11/21 13:18:08;;;;;;;12.45;5.60;;;;;;;;;;5093837;28;20056;-76
2021/11/21 13:20:34;;;;;;;11.45;4.95;;;;;;;;;;5075460;28;20059;-75
2021/11/21 13:23:02;;;;;;;9.60;5.25;;;;;;;;;;5092455;28;20040;-76
2021/11/21 13:25:28;;;;;;;9.88;5.07;;;;;;;;;;5092438;28;20056;-76
2021/11/21 13:28:12;;;;;;;10.48;5.43;;;;;;;;;;5075790;28;20125;-76
2021/11/21 13:30:38;;;;;;;10.23;4.95;;;;;;;;;;5093847;28;20081;-76
2021/11/21 13:33:17;;;;;;;11.93;5.50;;;;;;;;;;5075700;28;20048;-76
2021/11/21 13:35:43;;;;;;;10.43;4.93;;;;;;;;;;5093607;28;20410;-76
2021/11/21 13:38:09;;;;;;;9.52;5.30;;;;;;;;;;5092266;28;20028;-75
2021/11/21 13:40:34;;;;;;;10.68;4.82;;;;;;;;;;5092203;28;20165;-76
2021/11/21 13:43:04;;;;;;;10.90;5.32;;;;;;;;;;5093487;28;20497;-76
2021/11/21 13:45:29;;;;;;;9.38;4.78;;;;;;;;;;5093295;28;20016;-76
2021/11/21 13:47:55;;;;;;;11.48;5.28;;;;;;;;;;5075224;28;20466;-75
2021/11/21 13:50:29;;;;;;;9.55;5.13;;;;;;;;;;5092036;28;20028;-76
2021/11/21 13:52:55;;;;;;;9.20;5.28;;;;;;;;;;5092446;28;20111;-76
2021/11/21 13:55:21;;;;;;;10.75;5.28;;;;;;;;;;5092364;28;20241;-76
2021/11/21 13:57:48;;;;;;;9.73;5.20;;;;;;;;;;5093463;28;20035;-77
2021/11/21 14:00:18;;;;;;;8.60;5.13;;;;;;;;;;5099926;28;20023;-76
2021/11/21 14:02:46;;;;;;;10.02;4.65;;;;;;;;;;5095826;28;20028;-75
2021/11/21 14:05:13;;;;;;;9.32;4.75;;;;;;;;;;5113385;28;20024;-76
2021/11/21 14:07:54;;;;;;;9.27;4.90;;;;;;;;;;5090484;28;20351;-76
2021/11/21 14:10:24;;;;;;;10.35;4.97;;;;;;;;;;5092114;28;20061;-76
2021/11/21 14:12:49;;;;;;;10.23;5.28;;;;;;;;;;5093288;28;20024;-75
2021/11/21 14:15:21;;;;;;;9.07;4.80;;;;;;;;;;5093050;28;20032;-75
2021/11/21 14:17:48;;;;;;;10.20;5.15;;;;;;;;;;5110368;28;20126;-75
2021/11/21 14:20:32;;;;;;;12.88;4.97;;;;;;;;;;5112327;28;20035;-75
2021/11/21 14:23:06;;;;;;;9.70;5.03;;;;;;;;;;5112232;28;20035;-76
2021/11/21 14:25:37;;;;;;;9.77;4.95;;;;;;;;;;5113460;28;20067;-76
2021/11/21 14:28:08;;;;;;;9.35;4.65;;;;;;;;;;5095129;28;20031;-76
2021/11/21 14:30:43;;;;;;;10.02;4.75;;;;;;;;;;5095115;28;20472;-76
2021/11/21 14:33:12;;;;;;;9.25;4.97;;;;;;;;;;5107727;28;20024;-75
2021/11/21 14:35:42;;;;;;;10.43;4.75;;;;;;;;;;5059688;28;20127;-75
2021/11/21 14:38:08;;;;;;;9.23;4.70;;;;;;;;;;5077415;28;20058;-75
2021/11/21 14:40:34;;;;;;;12.45;5.00;;;;;;;;;;5095848;28;20027;-75
2021/11/21 14:42:59;;;;;;;10.88;5.15;;;;;;;;;;5094867;28;20367;-75
2021/11/21 14:45:25;;;;;;;8.35;4.40;;;;;;;;;;5096842;28;20039;-75
2021/11/21 14:47:51;;;;;;;9.63;5.05;;;;;;;;;;5095319;28;20028;-77
2021/11/21 14:50:16;;;;;;;9.20;4.35;;;;;;;;;;5078518;28;20076;-75
2021/11/21 14:52:42;;;;;;;8.38;4.30;;;;;;;;;;5095173;28;20040;-78
2021/11/21 14:55:09;;;;;;;10.45;4.78;;;;;;;;;;5095238;28;20040;-76
2021/11/21 14:57:41;;;;;;;9.30;4.90;;;;;;;;;;5095261;28;20024;-75
2021/11/21 15:00:07;;;;;;;8.95;4.85;;;;;;;;;;5096252;28;20478;-77
2021/11/21 15:02:34;;;;;;;8.57;4.70;;;;;;;;;;5096390;28;20025;-75
2021/11/21 15:05:00;;;;;;;8.50;4.57;;;;;;;;;;5096277;28;20073;-74
2021/11/21 15:07:26;;;;;;;7.88;4.70;;;;;;;;;;5100093;28;20023;-76
2021/11/21 15:09:51;;;;;;;8.80;4.63;;;;;;;;;;5116244;28;20042;-77
2021/11/21 15:12:17;;;;;;;11.50;4.90;;;;;;;;;;5115433;28;20031;-77
2021/11/21 15:14:43;;;;;;;11.75;4.47;;;;;;;;;;5115483;28;20529;-76
2021/11/21 15:17:08;;;;;;;8.15;4.30;;;;;;;;;;5115382;28;20076;-77
2021/11/21 15:19:34;;;;;;;8.05;4.47;;;;;;;;;;5098180;28;20037;-76
2021/11/21 15:22:00;;;;;;;10.70;4.97;;;;;;;;;;5116206;28;20028;-76
2021/11/21 15:24:26;;;;;;;7.95;4.03;;;;;;;;;;5116412;28;20035;-77
2021/11/21 15:26:52;;;;;;;7.90;4.35;;;;;;;;;;5098900;28;20032;-76
2021/11/21 15:29:18;;;;;;;9.60;4.35;;;;;;;;;;5097960;28;20036;-77
2021/11/21 15:31:45;;;;;;;8.60;4.35;;;;;;;;;;5098033;28;20032;-77
2021/11/21 15:34:12;;;;;;;13.18;5.18;;;;;;;;;;5098032;28;20067;-77
2021/11/21 15:36:38;;;;;;;10.45;4.50;;;;;;;;;;5114469;28;20393;-77
2021/11/21 15:39:04;;;;;;;7.00;4.20;;;;;;;;;;5116031;28;20028;-76
2021/11/21 15:41:30;;;;;;;7.97;4.38;;;;;;;;;;5115369;28;20030;-78
2021/11/21 15:43:58;;;;;;;7.63;4.10;;;;;;;;;;5116072;28;20432;-76
2021/11/21 15:46:25;;;;;;;9.18;4.70;;;;;;;;;;5115764;28;20034;-76
2021/11/21 15:48:50;;;;;;;8.40;4.80;;;;;;;;;;5115582;28;20501;-77
2021/11/21 15:51:16;;;;;;;6.82;3.80;;;;;;;;;;5115787;28;20069;-77
2021/11/21 15:53:42;;;;;;;7.22;4.32;;;;;;;;;;5115774;28;20501;-75
2021/11/21 15:56:07;;;;;;;8.50;4.13;;;;;;;;;;5114387;28;20119;-77
2021/11/21 15:58:34;;;;;;;7.63;4.35;;;;;;;;;;5115842;28;20023;-76
2021/11/21 16:00:59;;;;;;;6.93;4.03;;;;;;;;;;5115933;28;20101;-78
2021/11/21 16:03:25;;;;;;;7.07;4.10;;;;;;;;;;5114287;28;20053;-76
2021/11/21 16:05:51;;;;;;;8.80;4.40;;;;;;;;;;5114266;28;20043;-77
2021/11/21 16:08:16;;;;;;;9.95;4.78;;;;;;;;;;5101743;28;20093;-77
2021/11/21 16:10:45;;;;;;;7.00;3.90;;;;;;;;;;5093819;28;20035;-78
2021/11/21 16:13:10;;;;;;;7.72;4.70;;;;;;;;;;5101811;28;20036;-76
2021/11/21 16:15:36;;;;;;;6.88;4.22;;;;;;;;;;5113183;28;20054;-77
2021/11/21 16:18:02;;;;;;;6.32;3.97;;;;;;;;;;5095993;28;20076;-80
2021/11/21 16:20:27;;;;;;;7.28;4.07;;;;;;;;;;5114004;28;20099;-76
2021/11/21 16:22:53;;;;;;;7.68;4.10;;;;;;;;;;5114288;28;20019;-82
2021/11/21 16:25:19;;;;;;;8.77;4.30;;;;;;;;;;5095779;28;20031;-76
2021/11/21 16:27:45;;;;;;;5.88;3.60;;;;;;;;;;5113974;28;20028;-78
2021/11/21 16:30:12;;;;;;;8.40;4.47;;;;;;;;;;5112782;28;20477;-78
2021/11/21 16:32:38;;;;;;;8.60;4.43;;;;;;;;;;5096069;28;20478;-75
2021/11/21 16:35:04;;;;;;;6.65;3.65;;;;;;;;;;5112850;28;20106;-76
2021/11/21 16:37:33;;;;;;;9.38;4.20;;;;;;;;;;5079202;28;20051;-75
2021/11/21 16:39:59;;;;;;;9.15;4.57;;;;;;;;;;5113365;28;20034;-78
2021/11/21 16:42:25;;;;;;;6.90;3.75;;;;;;;;;;5113618;28;20031;-76
2021/11/21 16:44:50;;;;;;;9.57;4.30;;;;;;;;;;5113599;28;20537;-75
2021/11/21 16:47:16;;;;;;;6.75;3.42;;;;;;;;;;5112245;28;20043;-75
2021/11/21 16:49:42;;;;;;;8.63;4.10;;;;;;;;;;5094535;28;20079;-75
2021/11/21 16:52:09;;;;;;;9.15;4.65;;;;;;;;;;5112023;28;20047;-76
2021/11/21 16:54:35;;;;;;;9.52;4.00;;;;;;;;;;5095576;28;20027;-76
2021/11/21 16:57:01;;;;;;;8.20;3.63;;;;;;;;;;5114493;28;20026;-77
2021/11/21 16:59:26;;;;;;;10.60;4.05;;;;;;;;;;5077963;28;20039;-77
2021/11/21 17:01:52;;;;;;;6.57;3.70;;;;;;;;;;5112093;28;20019;-75
2021/11/21 17:04:18;;;;;;;7.30;3.85;;;;;;;;;;5113018;28;20115;-75
2021/11/21 17:06:44;;;;;;;9.30;3.80;;;;;;;;;;5112417;28;20051;-77
2021/11/21 17:09:09;;;;;;;7.13;4.00;;;;;;;;;;5111874;28;20080;-79
2021/11/21 17:11:35;;;;;;;6.43;3.50;;;;;;;;;;5099851;28;20020;-79
2021/11/21 17:14:01;;;;;;;9.50;3.63;;;;;;;;;;5094783;28;20507;-74
2021/11/21 17:16:27;;;;;;;9.38;3.60;;;;;;;;;;5112967;28;20031;-76
2021/11/21 17:18:53;;;;;;;12.23;3.85;;;;;;;;;;5111290;28;20034;-74
2021/11/21 17:21:25;;;;;;;6.68;3.53;;;;;;;;;;5111926;28;20020;-73
2021/11/21 17:23:51;;;;;;;6.68;3.70;;;;;;;;;;5111666;28;20031;-75
2021/11/21 17:26:16;;;;;;;6.68;3.15;;;;;;;;;;5111731;28;20028;-76
2021/11/21 17:28:42;;;;;;;6.72;3.25;;;;;;;;;;5111623;28;20042;-76
2021/11/21 17:31:07;;;;;;;7.43;3.42;;;;;;;;;;5077706;28;20501;-75
2021/11/21 17:33:33;;;;;;;9.30;3.63;;;;;;;;;;5094432;28;20128;-76
2021/11/21 17:36:02;;;;;;;5.70;2.78;;;;;;;;;;5094574;28;20028;-75
2021/11/21 17:38:28;;;;;;;6.30;3.65;;;;;;;;;;5112697;28;20063;-75
2021/11/21 17:40:54;;;;;;;10.25;3.50;;;;;;;;;;5094631;28;20564;-76
2021/11/21 17:43:19;;;;;;;10.15;3.30;;;;;;;;;;5111766;28;20028;-76
2021/11/21 17:45:45;;;;;;;11.38;3.70;;;;;;;;;;5077846;28;20040;-76
2021/11/21 17:48:11;;;;;;;7.20;3.67;;;;;;;;;;5077439;28;20090;-76
2021/11/21 17:50:37;;;;;;;6.57;3.38;;;;;;;;;;5112138;28;20486;-79
2021/11/21 17:53:03;;;;;;;6.15;3.50;;;;;;;;;;5112816;28;20355;-75
2021/11/21 17:55:29;;;;;;;9.70;3.47;;;;;;;;;;5112590;28;20042;-71
2021/11/21 17:57:54;;;;;;;10.00;3.80;;;;;;;;;;5111074;28;20478;-71
2021/11/21 18:00:21;;;;;;;7.28;3.10;;;;;;;;;;5112680;28;20038;-74
2021/11/21 18:02:48;;;;;;;12.65;3.60;;;;;;;;;;5094929;28;20071;-77
2021/11/21 18:05:14;;;;;;;10.23;3.55;;;;;;;;;;5111598;28;20133;-74
2021/11/21 18:07:40;;;;;;;9.18;3.47;;;;;;;;;;5111339;28;20035;-73
2021/11/21 18:10:08;;;;;;;7.65;3.30;;;;;;;;;;5111984;28;20042;-76
2021/11/21 18:12:33;;;;;;;13.27;3.55;;;;;;;;;;5115515;28;20020;-73
2021/11/21 18:15:01;;;;;;;8.85;3.65;;;;;;;;;;5116596;28;20031;-82
2021/11/21 18:17:28;;;;;;;6.35;3.42;;;;;;;;;;5115475;28;20023;-71
2021/11/21 18:19:55;;;;;;;6.85;3.63;;;;;;;;;;5116313;27;20027;-72
2021/11/21 18:22:20;;;;;;;9.70;3.72;;;;;;;;;;5115250;28;20038;-76
2021/11/21 18:24:47;;;;;;;8.63;3.47;;;;;;;;;;5115259;28;20119;-75
2021/11/21 18:27:19;;;;;;;7.18;3.30;;;;;;;;;;5116263;28;20070;-76
2021/11/21 18:29:45;;;;;;;9.15;3.92;;;;;;;;;;5097583;28;20050;-72
2021/11/21 18:32:11;;;;;;;6.10;3.40;;;;;;;;;;5116098;28;20023;-75
2021/11/21 18:34:36;;;;;;;7.80;3.72;;;;;;;;;;5115246;28;20027;-75
2021/11/21 18:37:02;;;;;;;6.05;3.25;;;;;;;;;;5114649;28;20035;-75
2021/11/21 18:39:27;;;;;;;5.63;3.22;;;;;;;;;;5116125;27;20032;-71
2021/11/21 18:41:54;;;;;;;5.95;2.95;;;;;;;;;;5114964;28;20023;-75
2021/11/21 18:44:20;;;;;;;9.43;3.70;;;;;;;;;;5114589;28;20039;-76
2021/11/21 18:46:47;;;;;;;6.03;3.50;;;;;;;;;;5115798;28;20483;-78
2021/11/21 18:49:12;;;;;;;7.15;3.13;;;;;;;;;;5114019;28;20556;-72
2021/11/21 18:51:38;;;;;;;6.13;3.15;;;;;;;;;;5115857;28;20098;-72
2021/11/21 18:54:04;;;;;;;7.97;3.30;;;;;;;;;;5097644;28;20046;-72
2021/11/21 18:56:32;;;;;;;5.53;3.20;;;;;;;;;;5097662;28;20070;-75
2021/11/21 18:59:09;;;;;;;8.73;3.35;;;;;;;;;;5115488;28;20028;-75
2021/11/21 19:01:35;;;;;;;10.43;3.20;;;;;;;;;;5115639;28;20023;-74
2021/11/21 19:04:00;;;;;;;6.35;3.20;;;;;;;;;;5113944;28;20418;-75
2021/11/21 19:06:26;;;;;;;8.88;3.55;;;;;;;;;;5114440;28;20027;-75
2021/11/21 19:08:52;;;;;;;6.43;3.08;;;;;;;;;;5115948;28;20039;-75
2021/11/21 19:11:17;;;;;;;9.05;3.17;;;;;;;;;;5114318;28;20053;-74
2021/11/21 19:13:43;;;;;;;7.50;3.47;;;;;;;;;;5114039;28;20036;-77
2021/11/21 19:16:09;;;;;;;8.77;3.80;;;;;;;;;;5115090;28;20035;-74
2021/11/21 19:18:34;;;;;;;6.10;3.20;;;;;;;;;;5114183;28;20046;-82
2021/11/21 19:21:00;;;;;;;22.75;3.47;;;;;;;;;;5113804;28;20032;-74
2021/11/21 19:23:26;;;;;;;5.72;3.28;;;;;;;;;;5115280;27;20082;-76
2021/11/21 19:25:52;;;;;;;9.07;3.30;;;;;;;;;;5114122;28;20031;-78
2021/11/21 19:28:18;;;;;;;6.15;3.05;;;;;;;;;;5096510;28;20393;-74
2021/11/21 19:30:44;;;;;;;5.97;3.28;;;;;;;;;;5114900;28;20054;-74
2021/11/21 19:33:10;;;;;;;9.48;3.22;;;;;;;;;;5113841;28;20035;-75
2021/11/21 19:35:36;;;;;;;9.93;3.17;;;;;;;;;;5114750;28;20027;-76
2021/11/21 19:38:01;;;;;;;6.07;3.17;;;;;;;;;;5113713;28;20035;-74
2021/11/21 19:40:27;;;;;;;7.63;3.42;;;;;;;;;;5114713;28;20473;-76
2021/11/21 19:43:00;;;;;;;7.10;3.03;;;;;;;;;;5114592;28;20027;-75
2021/11/21 19:45:30;;;;;;;6.38;3.17;;;;;;;;;;5096709;28;20047;-82
2021/11/21 19:47:56;;;;;;;5.80;3.00;;;;;;;;;;5114619;28;20036;-77
2021/11/21 19:50:22;;;;;;;8.50;3.03;;;;;;;;;;5114964;28;20459;-75
2021/11/21 19:52:49;;;;;;;6.57;3.05;;;;;;;;;;5113909;28;20027;-75
2021/11/21 19:55:15;;;;;;;8.00;3.30;;;;;;;;;;5113425;28;20039;-79
2021/11/21 19:57:42;;;;;;;6.45;2.78;;;;;;;;;;5114420;28;20020;-74
2021/11/21 20:00:08;;;;;;;8.85;3.17;;;;;;;;;;5115597;28;20053;-78
2021/11/21 20:02:40;;;;;;;5.93;3.17;;;;;;;;;;5115372;28;20043;-75
2021/11/21 20:05:07;;;;;;;6.20;3.20;;;;;;;;;;5113748;28;20477;-78
2021/11/21 20:07:37;;;;;;;6.07;3.25;;;;;;;;;;5110945;28;20078;-75
2021/11/21 20:10:08;;;;;;;5.90;2.80;;;;;;;;;;5103999;28;20039;-76
2021/11/21 20:12:34;;;;;;;5.25;2.63;;;;;;;;;;5075787;28;20016;-76
2021/11/21 20:15:00;;;;;;;7.20;2.72;;;;;;;;;;5093558;28;20032;-74
2021/11/21 20:17:26;;;;;;;6.93;2.88;;;;;;;;;;5092331;28;20111;-74
2021/11/21 20:19:51;;;;;;;6.90;2.90;;;;;;;;;;5098131;28;20036;-72
2021/11/21 20:22:17;;;;;;;6.93;2.88;;;;;;;;;;5112404;28;20012;-73
2021/11/21 20:24:42;;;;;;;4.90;2.90;;;;;;;;;;5113441;28;20397;-75
2021/11/21 20:27:08;;;;;;;5.95;3.00;;;;;;;;;;5113038;28;20023;-78
2021/11/21 20:29:34;;;;;;;5.97;2.80;;;;;;;;;;5112467;28;20474;-73
2021/11/21 20:34:45;;;;;;;6.20;2.92;;;;;;;;;;5111841;28;20032;-76
2021/11/21 20:37:12;;;;;;;5.75;2.63;;;;;;;;;;5111784;28;20024;-75
2021/11/21 20:39:39;;;;;;;6.50;2.85;;;;;;;;;;5113694;28;20022;-74
2021/11/21 20:42:07;;;;;;;6.70;3.08;;;;;;;;;;5112069;28;20031;-73
2021/11/21 20:44:33;;;;;;;6.15;2.78;;;;;;;;;;5112284;28;20100;-74
2021/11/21 20:46:59;;;;;;;5.25;2.60;;;;;;;;;;5112327;28;20059;-75
2021/11/21 20:49:24;;;;;;;4.85;2.55;;;;;;;;;;5113072;28;20058;-74
2021/11/21 20:51:51;;;;;;;4.85;2.72;;;;;;;;;;5113302;28;20024;-75
2021/11/21 20:54:16;;;;;;;6.05;2.42;;;;;;;;;;5111883;28;20028;-74
2021/11/21 20:56:42;;;;;;;8.50;2.88;;;;;;;;;;5094988;28;20157;-75
2021/11/21 20:59:08;;;;;;;5.65;2.50;;;;;;;;;;5113246;28;20679;-74
2021/11/21 21:01:34;;;;;;;6.68;2.88;;;;;;;;;;5113116;28;20024;-74
2021/11/21 21:03:59;;;;;;;6.18;2.53;;;;;;;;;;5111808;28;20069;-75
2021/11/21 21:06:25;;;;;;;5.43;2.92;;;;;;;;;;5111884;28;20027;-75
2021/11/21 21:08:51;;;;;;;5.82;3.10;;;;;;;;;;5111320;28;20030;-75
2021/11/21 21:11:18;;;;;;;4.53;2.72;;;;;;;;;;5094417;28;20033;-75
2021/11/21 21:13:44;;;;;;;4.38;2.35;;;;;;;;;;5113023;27;20377;-74
2021/11/21 21:16:10;;;;;;;6.40;2.60;;;;;;;;;;5111943;28;20031;-75
2021/11/21 21:18:36;;;;;;;5.60;2.63;;;;;;;;;;5112857;28;20391;-75
2021/11/21 21:21:06;;;;;;;5.15;2.60;;;;;;;;;;5111515;28;20031;-75
2021/11/21 21:23:34;;;;;;;5.53;2.65;;;;;;;;;;5094724;28;20032;-78
2021/11/21 21:26:00;;;;;;;6.05;2.53;;;;;;;;;;5111826;28;20031;-75
2021/11/21 21:28:25;;;;;;;4.10;2.53;;;;;;;;;;5077714;28;20108;-75
2021/11/21 21:30:51;;;;;;;4.40;3.00;;;;;;;;;;5112859;28;20103;-75
2021/11/21 21:33:20;;;;;;;4.68;2.63;;;;;;;;;;5112648;28;20028;-75
2021/11/21 21:35:46;;;;;;;5.05;2.28;;;;;;;;;;5111285;28;20088;-75
2021/11/21 21:38:12;;;;;;;5.68;2.95;;;;;;;;;;5111348;28;20053;-75
2021/11/21 21:40:37;;;;;;;7.65;2.42;;;;;;;;;;5111427;28;20051;-76
2021/11/21 21:43:03;;;;;;;5.75;2.45;;;;;;;;;;5094495;28;20020;-76
2021/11/21 21:45:29;;;;;;;4.18;2.38;;;;;;;;;;5110932;28;20149;-75
2021/11/21 21:47:59;;;;;;;4.55;2.60;;;;;;;;;;5093800;28;20047;-75
2021/11/21 21:50:26;;;;;;;6.72;2.50;;;;;;;;;;5094625;28;20085;-75
2021/11/21 21:52:51;;;;;;;4.35;2.55;;;;;;;;;;5112515;28;20107;-75
2021/11/21 21:55:17;;;;;;;5.03;2.80;;;;;;;;;;5094427;28;20094;-75
2021/11/21 21:57:43;;;;;;;4.50;2.33;;;;;;;;;;5111135;28;20042;-75
2021/11/21 22:00:08;;;;;;;4.68;2.60;;;;;;;;;;5112116;28;20038;-74
2021/11/21 22:02:37;;;;;;;6.57;2.83;;;;;;;;;;5111385;28;20031;-74
2021/11/21 22:05:04;;;;;;;4.85;2.70;;;;;;;;;;5110999;28;20023;-74
2021/11/21 22:07:35;;;;;;;5.03;2.80;;;;;;;;;;5112411;28;20036;-75
2021/11/21 22:10:02;;;;;;;4.45;2.55;;;;;;;;;;5111090;28;20541;-75
2021/11/21 22:12:27;;;;;;;4.75;2.30;;;;;;;;;;5112340;28;20028;-75
2021/11/21 22:14:53;;;;;;;5.78;2.70;;;;;;;;;;5112872;28;20024;-74
2021/11/21 22:17:18;;;;;;;5.95;2.65;;;;;;;;;;5112498;28;20032;-74
2021/11/21 22:19:44;;;;;;;6.20;2.30;;;;;;;;;;5113502;28;20024;-75
2021/11/21 22:22:12;;;;;;;4.15;2.40;;;;;;;;;;5113724;28;20020;-74
2021/11/21 22:24:37;;;;;;;6.60;2.67;;;;;;;;;;5112450;28;20496;-74
2021/11/21 22:27:03;;;;;;;5.25;2.70;;;;;;;;;;5112356;28;20024;-75
2021/11/21 22:29:28;;;;;;;4.65;2.58;;;;;;;;;;5112072;28;20497;-74
2021/11/21 22:31:54;;;;;;;6.07;2.78;;;;;;;;;;5112289;28;20053;-75
2021/11/21 22:34:19;;;;;;;5.40;2.50;;;;;;;;;;5112520;28;20073;-74
2021/11/21 22:36:45;;;;;;;4.85;2.65;;;;;;;;;;5113489;28;20388;-74
2021/11/21 22:39:12;;;;;;;5.05;2.28;;;;;;;;;;5112188;28;20418;-74
2021/11/21 22:41:41;;;;;;;4.40;2.63;;;;;;;;;;5094987;28;20482;-74
2021/11/21 22:44:10;;;;;;;5.25;2.70;;;;;;;;;;5112061;28;20063;-74
2021/11/21 22:46:36;;;;;;;5.32;2.60;;;;;;;;;;5095552;28;20532;-74
2021/11/21 22:49:02;;;;;;;5.85;2.50;;;;;;;;;;5113104;28;20048;-75
2021/11/21 22:51:27;;;;;;;4.93;2.80;;;;;;;;;;5113329;28;20448;-75
2021/11/21 22:53:53;;;;;;;5.28;2.85;;;;;;;;;;5112158;28;20115;-75
2021/11/21 22:56:19;;;;;;;5.15;2.92;;;;;;;;;;5113511;28;20111;-74
2021/11/21 22:58:45;;;;;;;5.63;2.92;;;;;;;;;;5116822;28;20058;-74
2021/11/21 23:01:11;;;;;;;4.55;2.50;;;;;;;;;;5116041;28;20032;-75
2021/11/21 23:03:36;;;;;;;4.65;2.42;;;;;;;;;;5115493;28;20028;-74
2021/11/21 23:06:02;;;;;;;5.70;2.95;;;;;;;;;;5116552;28;20035;-75
2021/11/21 23:08:28;;;;;;;6.88;3.10;;;;;;;;;;5109118;28;20023;-74
